createdAt,value
2023-05-19T00:00:10.640Z,100.00
2023-05-19T00:02:41.736Z,100.00
2023-05-19T00:05:10.451Z,100.00
2023-05-19T00:07:39.473Z,100.00
2023-05-19T00:10:07.301Z,100.00
2023-05-19T00:12:35.616Z,100.00
2023-05-19T00:15:03.015Z,100.00
2023-05-19T00:17:31.569Z,100.00
2023-05-19T00:19:58.720Z,100.00
2023-05-19T00:22:26.041Z,100.00
2023-05-19T00:24:53.161Z,100.00
2023-05-19T00:27:20.311Z,100.00
2023-05-19T00:29:47.433Z,100.00
2023-05-19T00:32:14.565Z,100.00
2023-05-19T00:34:41.729Z,100.00
2023-05-19T00:37:08.954Z,100.00
2023-05-19T00:39:35.998Z,100.00
2023-05-19T00:42:03.217Z,100.00
2023-05-19T00:44:30.288Z,100.00
2023-05-19T00:46:58.025Z,100.00
2023-05-19T00:49:25.302Z,100.00
2023-05-19T00:51:52.315Z,100.00
2023-05-19T00:54:21.091Z,100.00
2023-05-19T00:56:49.986Z,100.00
2023-05-19T00:59:17.440Z,100.00
2023-05-19T01:01:49.068Z,100.00
2023-05-19T01:04:20.196Z,100.00
2023-05-19T01:06:55.200Z,100.00
2023-05-19T01:09:23.092Z,100.00
2023-05-19T01:11:50.737Z,100.00
2023-05-19T01:14:19.585Z,100.00
2023-05-19T01:16:51.814Z,100.00
2023-05-19T01:19:25.571Z,100.00
2023-05-19T01:22:13.295Z,100.00
2023-05-19T01:25:00.251Z,100.00
2023-05-19T01:27:46.285Z,100.00
2023-05-19T01:30:25.444Z,100.00
2023-05-19T01:32:54.981Z,100.00
2023-05-19T01:35:26.354Z,100.00
2023-05-19T01:37:56.956Z,100.00
2023-05-19T01:40:25.766Z,100.00
2023-05-19T01:42:57.411Z,100.00
2023-05-19T01:45:28.077Z,100.00
2023-05-19T01:47:59.272Z,100.00
2023-05-19T01:50:27.126Z,100.00
2023-05-19T01:52:55.483Z,100.00
2023-05-19T01:55:25.312Z,100.00
2023-05-19T01:57:52.311Z,100.00
2023-05-19T02:00:32.201Z,100.00
2023-05-19T02:03:11.477Z,100.00
2023-05-19T02:05:46.054Z,100.00
2023-05-19T02:08:34.650Z,100.00
2023-05-19T02:11:19.822Z,100.00
2023-05-19T02:13:50.482Z,100.00
2023-05-19T02:16:18.080Z,100.00
2023-05-19T02:18:46.342Z,100.00
2023-05-19T02:21:13.682Z,100.00
2023-05-19T02:23:44.073Z,100.00
2023-05-19T02:26:11.290Z,100.00
2023-05-19T02:28:38.389Z,100.00
2023-05-19T02:31:08.986Z,100.00
2023-05-19T02:33:36.424Z,100.00
2023-05-19T02:36:03.636Z,100.00
2023-05-19T02:38:31.097Z,100.00
2023-05-19T02:40:58.761Z,100.00
2023-05-19T02:43:25.932Z,100.00
2023-05-19T02:45:53.073Z,100.00
2023-05-19T02:48:20.232Z,100.00
2023-05-19T02:50:47.311Z,100.00
2023-05-19T02:53:14.422Z,100.00
2023-05-19T02:55:42.486Z,100.00
2023-05-19T02:58:09.678Z,100.00
2023-05-19T03:00:36.906Z,100.00
2023-05-19T03:03:04.678Z,100.00
2023-05-19T03:05:31.962Z,100.00
2023-05-19T03:07:59.089Z,100.00
2023-05-19T03:10:26.337Z,100.00
2023-05-19T03:12:53.624Z,100.00
2023-05-19T03:15:23.220Z,100.00
2023-05-19T03:17:50.556Z,100.00
2023-05-19T03:20:18.234Z,100.00
2023-05-19T03:22:45.233Z,100.00
2023-05-19T03:25:12.533Z,100.00
2023-05-19T03:27:40.729Z,100.00
2023-05-19T03:30:09.143Z,100.00
2023-05-19T03:32:46.834Z,100.00
2023-05-19T03:35:14.048Z,100.00
2023-05-19T03:37:41.092Z,100.00
2023-05-19T03:40:09.089Z,100.00
2023-05-19T03:42:37.973Z,100.00
2023-05-19T03:45:06.014Z,100.00
2023-05-19T03:47:33.219Z,100.00
2023-05-19T03:50:10.964Z,100.00
2023-05-19T03:52:50.633Z,100.00
2023-05-19T03:55:30.076Z,100.00
2023-05-19T03:57:57.456Z,100.00
2023-05-19T04:00:25.115Z,100.00
2023-05-19T04:02:52.301Z,100.00
2023-05-19T04:05:19.502Z,100.00
2023-05-19T04:07:46.971Z,100.00
2023-05-19T04:10:14.566Z,100.00
2023-05-19T04:12:41.700Z,100.00
2023-05-19T04:15:11.608Z,100.00
2023-05-19T04:17:39.624Z,100.00
2023-05-19T04:20:07.417Z,100.00
2023-05-19T04:22:34.543Z,100.00
2023-05-19T04:25:01.902Z,100.00
2023-05-19T04:27:30.279Z,100.00
2023-05-19T04:29:58.241Z,100.00
2023-05-19T04:32:25.883Z,100.00
2023-05-19T04:34:54.179Z,100.00
2023-05-19T04:37:26.271Z,100.00
2023-05-19T04:39:54.311Z,100.00
2023-05-19T04:42:26.257Z,100.00
2023-05-19T04:44:54.698Z,100.00
2023-05-19T04:47:28.293Z,100.00
2023-05-19T04:49:55.920Z,100.00
2023-05-19T04:52:23.893Z,100.00
2023-05-19T04:54:51.532Z,100.00
2023-05-19T04:57:18.792Z,100.00
2023-05-19T04:59:46.489Z,100.00
2023-05-19T05:02:13.992Z,100.00
2023-05-19T05:04:42.775Z,100.00
2023-05-19T05:07:10.937Z,100.00
2023-05-19T05:09:38.813Z,100.00
2023-05-19T05:12:08.166Z,100.00
2023-05-19T05:14:37.271Z,100.00
2023-05-19T05:17:05.403Z,100.00
2023-05-19T05:19:33.142Z,100.00
2023-05-19T05:22:00.695Z,100.00
2023-05-19T05:24:28.257Z,100.00
2023-05-19T05:26:59.608Z,100.00
2023-05-19T05:29:27.122Z,100.00
2023-05-19T05:31:54.631Z,100.00
2023-05-19T05:34:23.155Z,100.00
2023-05-19T05:36:50.341Z,100.00
2023-05-19T05:39:18.625Z,100.00
2023-05-19T05:41:45.967Z,100.00
2023-05-19T05:44:13.346Z,100.00
2023-05-19T05:46:43.013Z,100.00
2023-05-19T05:49:12.531Z,100.00
2023-05-19T05:51:51.117Z,100.00
2023-05-19T05:54:30.256Z,100.00
2023-05-19T05:56:57.930Z,100.00
2023-05-19T05:59:25.214Z,100.00
2023-05-19T06:01:52.292Z,100.00
2023-05-19T06:04:21.402Z,100.00
2023-05-19T06:06:48.644Z,100.00
2023-05-19T06:09:20.989Z,100.00
2023-05-19T06:11:48.220Z,100.00
2023-05-19T06:14:15.452Z,100.00
2023-05-19T06:17:03.665Z,100.00
2023-05-19T06:19:31.263Z,100.00
2023-05-19T06:21:58.693Z,100.00
2023-05-19T06:24:25.923Z,100.00
2023-05-19T06:26:53.134Z,100.00
2023-05-19T06:29:20.310Z,100.00
2023-05-19T06:31:48.604Z,100.00
2023-05-19T06:34:17.826Z,100.00
2023-05-19T06:36:47.087Z,100.00
2023-05-19T06:39:15.215Z,100.00
2023-05-19T06:41:42.441Z,100.00
2023-05-19T06:44:09.694Z,100.00
2023-05-19T06:46:37.058Z,100.00
2023-05-19T06:49:04.822Z,100.00
2023-05-19T06:51:36.958Z,100.00
2023-05-19T06:54:04.731Z,100.00
2023-05-19T06:56:34.132Z,100.00
2023-05-19T06:59:01.230Z,99.82
2023-05-19T07:01:34.518Z,98.88
2023-05-19T07:04:02.431Z,98.85
2023-05-19T07:06:30.274Z,98.03
2023-05-19T07:08:57.821Z,98.55
2023-05-19T07:11:26.477Z,98.95
2023-05-19T07:13:54.173Z,99.49
2023-05-19T07:16:26.959Z,97.83
2023-05-19T07:18:55.315Z,96.76
2023-05-19T07:21:22.466Z,96.84
2023-05-19T07:23:50.424Z,96.75
2023-05-19T07:26:17.577Z,96.81
2023-05-19T07:28:44.787Z,96.54
2023-05-19T07:31:11.870Z,93.23
2023-05-19T07:33:38.966Z,91.59
2023-05-19T07:36:06.160Z,88.91
2023-05-19T07:38:36.186Z,88.49
2023-05-19T07:41:03.740Z,86.10
2023-05-19T07:43:30.909Z,86.28
2023-05-19T07:45:58.075Z,87.60
2023-05-19T07:48:26.021Z,83.96
2023-05-19T07:50:53.558Z,83.43
2023-05-19T07:53:21.032Z,81.98
2023-05-19T07:55:48.487Z,82.23
2023-05-19T07:58:15.966Z,82.53
2023-05-19T08:00:43.430Z,82.60
2023-05-19T08:03:10.859Z,78.48
2023-05-19T08:05:38.191Z,78.82
2023-05-19T08:08:05.584Z,79.83
2023-05-19T08:10:32.967Z,78.47
2023-05-19T08:13:00.450Z,78.80
2023-05-19T08:15:27.609Z,76.81
2023-05-19T08:17:54.740Z,72.93
2023-05-19T08:20:23.178Z,69.58
2023-05-19T08:22:50.811Z,70.83
2023-05-19T08:25:19.872Z,72.21
2023-05-19T08:27:47.057Z,72.02
2023-05-19T08:30:14.455Z,68.66
2023-05-19T08:32:41.880Z,68.02
2023-05-19T08:35:09.504Z,68.33
2023-05-19T08:37:38.222Z,66.93
2023-05-19T08:40:06.061Z,67.12
2023-05-19T08:42:34.062Z,64.87
2023-05-19T08:45:02.565Z,63.56
2023-05-19T08:47:29.871Z,63.83
2023-05-19T08:50:10.956Z,63.51
2023-05-19T08:53:04.272Z,65.05
2023-05-19T08:55:36.890Z,64.52
2023-05-19T08:58:05.050Z,63.15
2023-05-19T09:00:33.217Z,62.89
2023-05-19T09:05:34.000Z,61.72
2023-05-19T09:08:02.932Z,61.43
2023-05-19T09:10:30.012Z,59.22
2023-05-19T09:12:57.190Z,59.31
2023-05-19T09:15:30.856Z,60.47
2023-05-19T09:18:11.991Z,59.04
2023-05-19T09:20:43.676Z,59.56
2023-05-19T09:23:17.528Z,61.24
2023-05-19T09:25:52.421Z,59.42
2023-05-19T09:28:33.414Z,59.32
2023-05-19T09:31:11.345Z,57.80
2023-05-19T09:33:42.202Z,56.82
2023-05-19T09:36:13.668Z,57.73
2023-05-19T09:38:41.481Z,59.13
2023-05-19T09:41:09.422Z,56.11
2023-05-19T09:43:36.901Z,57.03
2023-05-19T09:46:06.341Z,58.03
2023-05-19T09:48:35.638Z,55.89
2023-05-19T09:51:05.306Z,56.95
2023-05-19T09:53:34.990Z,55.68
2023-05-19T09:56:03.707Z,53.17
2023-05-19T09:58:37.431Z,53.74
2023-05-19T10:01:05.888Z,54.34
2023-05-19T10:03:34.147Z,54.76
2023-05-19T10:06:01.768Z,53.65
2023-05-19T10:08:30.855Z,53.31
2023-05-19T10:10:58.514Z,53.33
2023-05-19T10:13:26.010Z,53.38
2023-05-19T10:15:58.610Z,53.87
2023-05-19T10:18:30.270Z,52.36
2023-05-19T10:20:58.222Z,50.94
2023-05-19T10:23:26.223Z,51.04
2023-05-19T10:25:58.382Z,50.42
2023-05-19T10:28:31.309Z,52.71
2023-05-19T10:31:01.892Z,51.57
2023-05-19T10:33:45.207Z,50.48
2023-05-19T10:36:47.894Z,51.95
2023-05-19T10:39:28.483Z,53.07
2023-05-19T10:42:04.851Z,51.84
2023-05-19T10:44:45.971Z,50.52
2023-05-19T10:47:13.457Z,49.92
2023-05-19T10:49:40.898Z,52.13
2023-05-19T10:52:26.418Z,49.68
2023-05-19T10:54:54.957Z,51.81
2023-05-19T10:57:31.916Z,48.88
2023-05-19T11:00:11.225Z,48.90
2023-05-19T11:02:43.420Z,49.62
2023-05-19T11:05:16.796Z,50.36
2023-05-19T11:07:47.869Z,50.05
2023-05-19T11:10:23.786Z,52.04
2023-05-19T11:12:52.330Z,52.68
2023-05-19T11:15:26.062Z,52.48
2023-05-19T11:17:53.953Z,52.50
2023-05-19T11:20:22.929Z,51.17
2023-05-19T11:23:20.354Z,48.10
2023-05-19T11:25:52.276Z,50.38
2023-05-19T11:28:25.739Z,48.43
2023-05-19T11:30:55.496Z,50.03
2023-05-19T11:33:27.371Z,49.61
2023-05-19T11:35:59.697Z,48.87
2023-05-19T11:38:30.197Z,49.73
2023-05-19T11:40:57.831Z,51.67
2023-05-19T11:43:26.280Z,51.14
2023-05-19T11:45:55.061Z,51.07
2023-05-19T11:48:22.811Z,49.85
2023-05-19T11:50:50.506Z,50.06
2023-05-19T11:53:17.717Z,49.95
2023-05-19T11:55:49.023Z,49.16
2023-05-19T11:58:16.930Z,46.42
2023-05-19T12:00:47.948Z,45.60
2023-05-19T12:03:15.623Z,47.72
2023-05-19T12:05:46.807Z,47.13
2023-05-19T12:08:17.238Z,46.20
2023-05-19T12:10:50.001Z,46.50
2023-05-19T12:13:17.422Z,48.75
2023-05-19T12:15:44.683Z,46.04
2023-05-19T12:18:12.305Z,45.99
2023-05-19T12:20:39.760Z,46.88
2023-05-19T12:23:07.671Z,48.40
2023-05-19T12:25:35.187Z,46.74
2023-05-19T12:28:05.547Z,48.13
2023-05-19T12:30:33.605Z,48.85
2023-05-19T12:33:02.808Z,45.79
2023-05-19T12:35:34.470Z,43.77
2023-05-19T12:38:07.765Z,46.19
2023-05-19T12:40:36.322Z,44.75
2023-05-19T12:43:04.224Z,43.84
2023-05-19T12:45:35.523Z,41.64
2023-05-19T12:48:11.469Z,41.49
2023-05-19T12:50:39.111Z,42.00
2023-05-19T12:53:16.294Z,42.52
2023-05-19T12:55:45.234Z,41.88
2023-05-19T12:58:12.803Z,40.52
2023-05-19T13:00:45.699Z,39.88
2023-05-19T13:03:17.909Z,40.92
2023-05-19T13:05:48.248Z,41.65
2023-05-19T13:08:21.591Z,41.61
2023-05-19T13:10:49.817Z,39.40
2023-05-19T13:13:17.562Z,41.81
2023-05-19T13:15:48.728Z,40.96
2023-05-19T13:18:17.288Z,41.66
2023-05-19T13:20:45.615Z,41.23
2023-05-19T13:23:13.777Z,41.46
2023-05-19T13:25:41.554Z,41.49
2023-05-19T13:28:09.767Z,41.60
2023-05-19T13:30:39.152Z,41.31
2023-05-19T13:33:06.741Z,41.04
2023-05-19T13:35:37.647Z,39.77
2023-05-19T13:38:07.034Z,40.00
2023-05-19T13:40:35.225Z,38.66
2023-05-19T13:43:03.408Z,39.11
2023-05-19T13:45:30.730Z,38.89
2023-05-19T13:47:57.753Z,40.64
2023-05-19T13:50:24.793Z,41.14
2023-05-19T13:52:52.158Z,40.87
2023-05-19T13:55:19.535Z,41.20
2023-05-19T13:57:46.657Z,40.97
2023-05-19T14:00:14.682Z,41.89
2023-05-19T14:02:42.493Z,41.37
2023-05-19T14:05:10.185Z,40.26
2023-05-19T14:07:37.322Z,40.43
2023-05-19T14:10:08.087Z,41.27
2023-05-19T14:12:49.493Z,40.91
2023-05-19T14:15:23.860Z,40.49
2023-05-19T14:17:51.070Z,40.31
2023-05-19T14:20:18.397Z,41.04
2023-05-19T14:22:45.633Z,40.57
2023-05-19T14:25:12.709Z,43.69
2023-05-19T14:27:42.611Z,44.81
2023-05-19T14:30:10.251Z,45.75
2023-05-19T14:32:37.468Z,46.50
2023-05-19T14:35:05.119Z,46.50
2023-05-19T14:37:32.476Z,46.82
2023-05-19T14:39:59.927Z,45.96
2023-05-19T14:42:27.032Z,45.47
2023-05-19T14:44:54.233Z,43.87
2023-05-19T14:47:21.553Z,43.19
2023-05-19T14:49:48.852Z,44.19
2023-05-19T14:52:16.036Z,45.58
2023-05-19T14:54:43.144Z,45.91
2023-05-19T14:57:10.197Z,45.81
2023-05-19T14:59:38.088Z,45.78
2023-05-19T15:02:05.786Z,46.47
2023-05-19T15:04:32.886Z,46.61
2023-05-19T15:09:30.073Z,45.83
2023-05-19T15:11:57.380Z,44.55
2023-05-19T15:14:24.468Z,44.94
2023-05-19T15:16:51.581Z,45.53
2023-05-19T15:19:18.765Z,46.58
2023-05-19T15:21:45.993Z,47.58
2023-05-19T15:24:13.096Z,49.41
2023-05-19T15:26:40.286Z,50.69
2023-05-19T15:29:07.341Z,52.18
2023-05-19T15:31:35.932Z,52.87
2023-05-19T15:34:05.166Z,53.65
2023-05-19T15:36:32.397Z,54.46
2023-05-19T15:38:59.505Z,55.44
2023-05-19T15:41:26.889Z,56.74
2023-05-19T15:43:54.125Z,57.50
2023-05-19T15:46:21.512Z,57.95
2023-05-19T15:48:48.653Z,58.35
2023-05-19T15:51:16.157Z,59.24
2023-05-19T15:53:43.319Z,59.37
2023-05-19T15:56:10.780Z,58.77
2023-05-19T15:58:37.907Z,58.94
2023-05-19T16:01:05.358Z,58.12
2023-05-19T16:03:32.881Z,58.13
2023-05-19T16:06:01.107Z,58.72
2023-05-19T16:08:28.914Z,58.30
2023-05-19T16:10:56.510Z,58.62
2023-05-19T16:13:23.717Z,59.11
2023-05-19T16:15:50.970Z,60.32
2023-05-19T16:18:18.264Z,60.49
2023-05-19T16:20:45.534Z,60.55
2023-05-19T16:23:12.776Z,60.89
2023-05-19T16:25:40.007Z,61.40
2023-05-19T16:28:07.334Z,61.50
2023-05-19T16:30:34.803Z,61.55
2023-05-19T16:33:02.243Z,60.67
2023-05-19T16:35:29.931Z,61.54
2023-05-19T16:37:57.150Z,61.30
2023-05-19T16:40:24.343Z,61.17
2023-05-19T16:42:53.469Z,61.30
2023-05-19T16:45:20.760Z,60.98
2023-05-19T16:47:47.941Z,61.12
2023-05-19T16:50:15.295Z,61.52
2023-05-19T16:52:42.638Z,61.16
2023-05-19T16:55:11.091Z,60.58
2023-05-19T16:57:38.298Z,60.90
2023-05-19T17:00:06.105Z,61.80
2023-05-19T17:02:33.357Z,62.33
2023-05-19T17:05:00.614Z,62.95
2023-05-19T17:07:29.304Z,63.85
2023-05-19T17:09:56.684Z,64.36
2023-05-19T17:12:23.859Z,64.57
2023-05-19T17:14:52.288Z,63.47
2023-05-19T17:17:19.676Z,62.95
2023-05-19T17:19:46.951Z,65.17
2023-05-19T17:22:14.177Z,65.51
2023-05-19T17:24:41.474Z,66.59
2023-05-19T17:27:08.643Z,67.11
2023-05-19T17:29:36.924Z,67.46
2023-05-19T17:32:04.551Z,68.80
2023-05-19T17:34:31.783Z,68.56
2023-05-19T17:36:59.176Z,69.22
2023-05-19T17:39:26.396Z,69.42
2023-05-19T17:41:53.432Z,69.35
2023-05-19T17:44:20.565Z,70.86
2023-05-19T17:46:47.874Z,71.49
2023-05-19T17:49:15.572Z,71.78
2023-05-19T17:51:42.992Z,71.47
2023-05-19T17:54:10.236Z,72.26
2023-05-19T17:56:42.770Z,72.84
2023-05-19T17:59:10.487Z,73.86
2023-05-19T18:01:37.773Z,74.35
2023-05-19T18:04:05.686Z,75.07
2023-05-19T18:06:33.190Z,74.62
2023-05-19T18:09:01.431Z,74.71
2023-05-19T18:11:28.969Z,75.05
2023-05-19T18:13:56.310Z,75.06
2023-05-19T18:16:23.439Z,75.58
2023-05-19T18:18:51.100Z,75.74
2023-05-19T18:21:18.264Z,78.79
2023-05-19T18:23:45.932Z,79.08
2023-05-19T18:26:13.496Z,78.93
2023-05-19T18:28:41.916Z,79.04
2023-05-19T18:31:11.078Z,79.57
2023-05-19T18:33:38.226Z,78.72
2023-05-19T18:36:05.631Z,80.15
2023-05-19T18:38:32.652Z,80.78
2023-05-19T18:41:00.899Z,81.51
2023-05-19T18:43:30.244Z,81.99
2023-05-19T18:45:57.474Z,80.83
2023-05-19T18:48:25.831Z,81.08
2023-05-19T18:50:53.037Z,80.95
2023-05-19T18:53:22.484Z,80.50
2023-05-19T18:55:49.632Z,80.41
2023-05-19T18:58:18.779Z,80.47
2023-05-19T19:00:46.108Z,81.13
2023-05-19T19:03:13.538Z,81.12
2023-05-19T19:05:40.906Z,80.16
2023-05-19T19:08:08.066Z,79.70
2023-05-19T19:10:39.122Z,80.57
2023-05-19T19:13:06.864Z,81.19
2023-05-19T19:15:33.957Z,81.27
2023-05-19T19:18:01.132Z,81.09
2023-05-19T19:20:28.201Z,80.95
2023-05-19T19:22:55.276Z,81.16
2023-05-19T19:25:23.707Z,81.39
2023-05-19T19:27:51.330Z,81.73
2023-05-19T19:30:18.480Z,81.74
2023-05-19T19:32:45.915Z,81.71
2023-05-19T19:35:13.165Z,81.31
2023-05-19T19:37:40.222Z,81.22
2023-05-19T19:40:07.949Z,81.04
2023-05-19T19:42:35.435Z,80.87
2023-05-19T19:45:02.567Z,81.30
2023-05-19T19:47:29.661Z,82.77
2023-05-19T19:49:56.814Z,82.35
2023-05-19T19:52:24.042Z,82.36
2023-05-19T19:54:51.250Z,81.56
2023-05-19T19:57:18.488Z,80.96
2023-05-19T19:59:45.708Z,79.51
2023-05-19T20:02:12.883Z,78.45
2023-05-19T20:04:40.168Z,77.60
2023-05-19T20:07:07.381Z,77.06
2023-05-19T20:09:34.500Z,77.67
2023-05-19T20:12:01.661Z,77.39
2023-05-19T20:14:28.849Z,77.21
2023-05-19T20:16:55.960Z,77.01
2023-05-19T20:19:28.017Z,76.81
2023-05-19T20:21:55.481Z,76.76
2023-05-19T20:24:22.663Z,76.85
2023-05-19T20:26:49.881Z,76.92
2023-05-19T20:29:17.099Z,76.85
2023-05-19T20:31:46.528Z,76.92
2023-05-19T20:34:13.803Z,77.26
2023-05-19T20:36:41.178Z,77.05
2023-05-19T20:39:11.003Z,77.13
2023-05-19T20:41:38.089Z,77.12
2023-05-19T20:44:06.119Z,77.89
2023-05-19T20:46:33.361Z,77.88
2023-05-19T20:49:00.561Z,78.08
2023-05-19T20:51:27.731Z,78.16
2023-05-19T20:53:54.837Z,78.06
2023-05-19T20:56:22.726Z,78.31
2023-05-19T20:58:49.955Z,78.27
2023-05-19T21:01:17.340Z,78.32
2023-05-19T21:03:44.485Z,78.10
2023-05-19T21:06:11.730Z,77.72
2023-05-19T21:08:38.936Z,77.86
2023-05-19T21:11:06.246Z,77.54
2023-05-19T21:13:51.768Z,77.66
2023-05-19T21:16:18.883Z,77.96
2023-05-19T21:18:46.179Z,78.46
2023-05-19T21:21:13.270Z,79.00
2023-05-19T21:23:40.318Z,79.88
2023-05-19T21:26:07.606Z,80.71
2023-05-19T21:28:34.668Z,80.61
2023-05-19T21:31:01.860Z,80.84
2023-05-19T21:33:29.078Z,80.69
2023-05-19T21:35:58.182Z,80.93
2023-05-19T21:38:25.341Z,81.00
2023-05-19T21:40:53.285Z,81.22
2023-05-19T21:43:23.393Z,81.38
2023-05-19T21:45:50.645Z,81.37
2023-05-19T21:48:18.144Z,81.77
2023-05-19T21:50:45.363Z,82.13
2023-05-19T21:53:12.694Z,82.76
2023-05-19T21:55:39.890Z,83.38
2023-05-19T21:58:07.082Z,85.06
2023-05-19T22:00:34.520Z,86.44
2023-05-19T22:03:01.952Z,86.88
2023-05-19T22:05:35.099Z,86.83
2023-05-19T22:08:02.261Z,87.28
2023-05-19T22:10:29.424Z,87.83
2023-05-19T22:12:57.600Z,89.23
2023-05-19T22:15:24.828Z,92.91
2023-05-19T22:17:52.088Z,94.54
2023-05-19T22:20:19.371Z,93.56
2023-05-19T22:22:46.536Z,94.80
2023-05-19T22:25:13.730Z,95.09
2023-05-19T22:27:40.861Z,94.86
2023-05-19T22:30:08.494Z,96.05
2023-05-19T22:32:36.298Z,96.18
2023-05-19T22:35:03.683Z,96.20
2023-05-19T22:37:30.977Z,96.72
2023-05-19T22:39:58.073Z,96.26
2023-05-19T22:42:25.357Z,96.93
2023-05-19T22:44:52.500Z,97.42
2023-05-19T22:47:19.559Z,96.77
2023-05-19T22:49:46.898Z,96.47
2023-05-19T22:52:14.630Z,95.75
2023-05-19T22:54:42.014Z,96.08
2023-05-19T22:57:09.628Z,97.59
2023-05-19T22:59:38.349Z,97.06
2023-05-19T23:02:06.145Z,97.05
2023-05-19T23:04:34.535Z,97.92
2023-05-19T23:07:01.858Z,98.13
2023-05-19T23:09:28.924Z,99.10
2023-05-19T23:11:56.122Z,99.99
2023-05-19T23:14:23.162Z,99.64
2023-05-19T23:16:50.450Z,99.94
2023-05-19T23:19:17.685Z,99.42
2023-05-19T23:21:46.008Z,99.08
2023-05-19T23:24:13.112Z,98.43
2023-05-19T23:26:45.986Z,98.21
2023-05-19T23:29:14.858Z,98.06
2023-05-19T23:31:42.031Z,98.50
2023-05-19T23:34:09.192Z,98.71
2023-05-19T23:36:36.832Z,99.85
2023-05-19T23:39:03.969Z,100.00
2023-05-19T23:41:31.549Z,100.00
2023-05-19T23:43:58.648Z,100.00
2023-05-19T23:46:26.028Z,100.00
2023-05-19T23:48:53.071Z,100.00
2023-05-19T23:51:20.106Z,100.00
2023-05-19T23:53:47.198Z,100.00
2023-05-19T23:56:14.409Z,100.00
2023-05-19T23:58:41.512Z,100.00
